Helas — C4AZ2 — position and weather

sailwx.info

Track history (hours):
 
Tides and Currents Weather Stations Pressure Air Temp Water Temp Dewpoint Dewpoint Depression Visibility Wind Speed Wind Dir Waves Ship Positions

Helas

Last reported at 2014-Dec-22 22:19 UTC. Time now 2014-Dec-23 00:08 UTC.
Position N 43°21' W 003°03'.

Length 89 m; draft 4.3 m.

Type: Cargo ship. MMSI: 210031000.

Date/timePositionNaut miles runAvg speedWind from/ knotsBaromVisibWave heightAir tempDewpointWater temp
2014-Dec-22 22:19N 43°21' W 003°03'1 0.0
2014-Dec-21 18:09N 43°20' W 003°02'9 0.3
2014-Dec-20 16:33N 43°29' W 003°07'1010.3
2014-Dec-20 15:33N 43°39' W 003°07'1310.5
2014-Dec-20 14:21N 43°52' W 003°07'207 5.4
2014-Dec-19 00:21N 47°15' W 002°14'8 9.8
2014-Dec-18 23:32N 47°08' W 002°21'95 7.2
2014-Dec-18 10:18N 47°40' W 004°33'231 5.0
2014-Dec-16 12:13N 50°26' W 000°29'7 9.8
2014-Dec-16 11:31N 50°28' W 000°19'1010.0
2014-Dec-16 10:33N 50°31' W 000°04'1410.3
2014-Dec-16 09:13N 50°35' E 000°17'710.5
2014-Dec-16 08:33N 50°37' E 000°27'1010.1
2014-Dec-16 07:33N 50°42' E 000°41'10 9.7
2014-Dec-16 06:33N 50°47' E 000°54'12 9.2
2014-Dec-16 05:18N 50°54' E 001°09'7 9.3
2014-Dec-16 04:32N 50°59' E 001°17'1010.3
2014-Dec-16 03:32N 51°05' E 001°30'1111.5
2014-Dec-16 02:33N 51°13' E 001°43'1611.6
2014-Dec-16 01:10N 51°26' E 001°29'2134.1
2014-Dec-16 00:32N 51°32' E 002°02'10 9.8
2014-Dec-15 23:33N 51°39' E 002°13'9 9.4
2014-Dec-15 22:33N 51°46' E 002°23'66 8.2
2014-Dec-15 14:33N 52°23' E 003°51'8 8.0
2014-Dec-15 13:33N 52°26' E 004°04'7 7.5
2014-Dec-15 12:33N 52°27' E 004°16'7 7.4
2014-Dec-15 11:34N 52°28' E 004°28'5 5.1
2014-Dec-15 10:33N 52°28' E 004°36'1 1.2
2014-Dec-15 09:32N 52°28' E 004°38'0 0.0
2014-Dec-15 08:32N 52°28' E 004°38'0 0.0
2014-Dec-15 07:32N 52°28' E 004°38'0 0.0
2014-Dec-15 06:32N 52°28' E 004°38'0 0.0
2014-Dec-15 05:32N 52°28' E 004°38'0 0.0
2014-Dec-15 04:32N 52°28' E 004°38'0 0.0
2014-Dec-15 03:32N 52°28' E 004°38'0 0.0
2014-Dec-15 02:32N 52°28' E 004°38'0 0.0
2014-Dec-15 01:32N 52°28' E 004°38'0 0.0
2014-Dec-15 00:32N 52°28' E 004°38'0 0.0
2014-Dec-14 23:32N 52°28' E 004°38'0 0.0
2014-Dec-14 22:32N 52°28' E 004°38'0 0.0
2014-Dec-14 21:32N 52°28' E 004°38'0 0.0
2014-Dec-14 20:32N 52°28' E 004°38'0 0.0
2014-Dec-14 19:32N 52°28' E 004°38'0 0.0
2014-Dec-14 18:31N 52°28' E 004°38'0 0.0
2014-Dec-14 17:31N 52°28' E 004°38'0 0.0
2014-Dec-14 16:31N 52°28' E 004°38'0 0.0
2014-Dec-14 15:31N 52°28' E 004°38'0 0.0
2014-Dec-14 14:31N 52°28' E 004°38'0 0.0
2014-Dec-14 13:31N 52°28' E 004°38'0 0.0
2014-Dec-14 12:31N 52°28' E 004°38'0 0.0
2014-Dec-14 11:31N 52°28' E 004°38'0 0.0
2014-Dec-14 10:28N 52°28' E 004°38'0 0.0
2014-Dec-14 09:31N 52°28' E 004°38'0 0.0
2014-Dec-14 08:31N 52°28' E 004°38'0 0.0
2014-Dec-14 07:31N 52°28' E 004°38'0 0.0
2014-Dec-14 06:31N 52°28' E 004°38'0 0.0
2014-Dec-14 05:31N 52°28' E 004°38'0 0.0
2014-Dec-14 04:31N 52°28' E 004°38'0 0.0
2014-Dec-14 03:31N 52°28' E 004°38'0 0.0
2014-Dec-14 02:31N 52°28' E 004°38'0 0.0
2014-Dec-14 01:31N 52°28' E 004°38'0 0.0
2014-Dec-14 00:31N 52°28' E 004°38'0 0.0
2014-Dec-13 23:31N 52°28' E 004°38'0 0.0
2014-Dec-13 22:34N 52°28' E 004°38'0 0.0
2014-Dec-13 21:33N 52°28' E 004°38'0 0.0
2014-Dec-13 20:33N 52°28' E 004°38'0 0.0
2014-Dec-13 19:33N 52°28' E 004°38'0 0.4
2014-Dec-13 18:34N 52°28' E 004°37'3 2.6
2014-Dec-13 17:34N 52°28' E 004°33'1010.4
2014-Dec-13 16:33N 52°29' E 004°16'1110.6
2014-Dec-13 15:33N 52°27' E 003°59'1010.2
2014-Dec-13 14:32N 52°22' E 003°44'10 9.5
2014-Dec-13 13:31N 52°15' E 003°34'20 9.1
2014-Dec-13 11:22N 51°57' E 003°23'12 9.9
2014-Dec-13 10:08N 51°45' E 003°16'7 9.9
2014-Dec-13 09:25N 51°39' E 003°20'1011.6
2014-Dec-13 08:33N 51°30' E 003°28'1111.2
2014-Dec-13 07:33N 51°24' E 003°43'6 6.2
2014-Dec-13 06:34N 51°19' E 003°49'1 0.9
2014-Dec-13 05:28N 51°18' E 003°50'0 0.0
2014-Dec-13 04:25N 51°18' E 003°50'0 0.0
2014-Dec-13 03:30N 51°18' E 003°50'0 0.0
2014-Dec-13 02:33N 51°18' E 003°50'0 0.0
2014-Dec-13 01:33N 51°18' E 003°50'0 0.0
2014-Dec-13 00:33N 51°18' E 003°50'0 0.0
2014-Dec-12 23:33N 51°18' E 003°50'0 0.0
2014-Dec-12 22:33N 51°18' E 003°50'  
Track history (hours):
 
Tides and Currents Weather Stations Pressure Air Temp Water Temp Dewpoint Dewpoint Depression Visibility Wind Speed Wind Dir Waves Ship Positions

Helas

Last reported at 2014-Dec-22 22:19 UTC. Time now 2014-Dec-23 00:08 UTC.
Position N 43°21' W 003°03'.

Length 89 m; draft 4.3 m.

Type: Cargo ship. MMSI: 210031000.

Date/timePositionNaut miles runAvg speedWind from/ knotsBaromVisibWave heightAir tempDewpointWater temp
2014-Dec-22 22:19N 43°21' W 003°03'1 0.0
2014-Dec-21 18:09N 43°20' W 003°02'9 0.3
2014-Dec-20 16:33N 43°29' W 003°07'1010.3
2014-Dec-20 15:33N 43°39' W 003°07'1310.5
2014-Dec-20 14:21N 43°52' W 003°07'207 5.4
2014-Dec-19 00:21N 47°15' W 002°14'8 9.8
2014-Dec-18 23:32N 47°08' W 002°21'95 7.2
2014-Dec-18 10:18N 47°40' W 004°33'231 5.0
2014-Dec-16 12:13N 50°26' W 000°29'7 9.8
2014-Dec-16 11:31N 50°28' W 000°19'1010.0
2014-Dec-16 10:33N 50°31' W 000°04'1410.3
2014-Dec-16 09:13N 50°35' E 000°17'710.5
2014-Dec-16 08:33N 50°37' E 000°27'1010.1
2014-Dec-16 07:33N 50°42' E 000°41'10 9.7
2014-Dec-16 06:33N 50°47' E 000°54'12 9.2
2014-Dec-16 05:18N 50°54' E 001°09'7 9.3
2014-Dec-16 04:32N 50°59' E 001°17'1010.3
2014-Dec-16 03:32N 51°05' E 001°30'1111.5
2014-Dec-16 02:33N 51°13' E 001°43'1611.6
2014-Dec-16 01:10N 51°26' E 001°29'2134.1
2014-Dec-16 00:32N 51°32' E 002°02'10 9.8
2014-Dec-15 23:33N 51°39' E 002°13'9 9.4
2014-Dec-15 22:33N 51°46' E 002°23'66 8.2
2014-Dec-15 14:33N 52°23' E 003°51'8 8.0
2014-Dec-15 13:33N 52°26' E 004°04'7 7.5
2014-Dec-15 12:33N 52°27' E 004°16'7 7.4
2014-Dec-15 11:34N 52°28' E 004°28'5 5.1
2014-Dec-15 10:33N 52°28' E 004°36'1 1.2
2014-Dec-15 09:32N 52°28' E 004°38'0 0.0
2014-Dec-15 08:32N 52°28' E 004°38'0 0.0
2014-Dec-15 07:32N 52°28' E 004°38'0 0.0
2014-Dec-15 06:32N 52°28' E 004°38'0 0.0
2014-Dec-15 05:32N 52°28' E 004°38'0 0.0
2014-Dec-15 04:32N 52°28' E 004°38'0 0.0
2014-Dec-15 03:32N 52°28' E 004°38'0 0.0
2014-Dec-15 02:32N 52°28' E 004°38'0 0.0
2014-Dec-15 01:32N 52°28' E 004°38'0 0.0
2014-Dec-15 00:32N 52°28' E 004°38'0 0.0
2014-Dec-14 23:32N 52°28' E 004°38'0 0.0
2014-Dec-14 22:32N 52°28' E 004°38'0 0.0
2014-Dec-14 21:32N 52°28' E 004°38'0 0.0
2014-Dec-14 20:32N 52°28' E 004°38'0 0.0
2014-Dec-14 19:32N 52°28' E 004°38'0 0.0
2014-Dec-14 18:31N 52°28' E 004°38'0 0.0
2014-Dec-14 17:31N 52°28' E 004°38'0 0.0
2014-Dec-14 16:31N 52°28' E 004°38'0 0.0
2014-Dec-14 15:31N 52°28' E 004°38'0 0.0
2014-Dec-14 14:31N 52°28' E 004°38'0 0.0
2014-Dec-14 13:31N 52°28' E 004°38'0 0.0
2014-Dec-14 12:31N 52°28' E 004°38'0 0.0
2014-Dec-14 11:31N 52°28' E 004°38'0 0.0
2014-Dec-14 10:28N 52°28' E 004°38'0 0.0
2014-Dec-14 09:31N 52°28' E 004°38'0 0.0
2014-Dec-14 08:31N 52°28' E 004°38'0 0.0
2014-Dec-14 07:31N 52°28' E 004°38'0 0.0
2014-Dec-14 06:31N 52°28' E 004°38'0 0.0
2014-Dec-14 05:31N 52°28' E 004°38'0 0.0
2014-Dec-14 04:31N 52°28' E 004°38'0 0.0
2014-Dec-14 03:31N 52°28' E 004°38'0 0.0
2014-Dec-14 02:31N 52°28' E 004°38'0 0.0
2014-Dec-14 01:31N 52°28' E 004°38'0 0.0
2014-Dec-14 00:31N 52°28' E 004°38'0 0.0
2014-Dec-13 23:31N 52°28' E 004°38'0 0.0
2014-Dec-13 22:34N 52°28' E 004°38'0 0.0
2014-Dec-13 21:33N 52°28' E 004°38'0 0.0
2014-Dec-13 20:33N 52°28' E 004°38'0 0.0
2014-Dec-13 19:33N 52°28' E 004°38'0 0.4
2014-Dec-13 18:34N 52°28' E 004°37'3 2.6
2014-Dec-13 17:34N 52°28' E 004°33'1010.4
2014-Dec-13 16:33N 52°29' E 004°16'1110.6
2014-Dec-13 15:33N 52°27' E 003°59'1010.2
2014-Dec-13 14:32N 52°22' E 003°44'10 9.5
2014-Dec-13 13:31N 52°15' E 003°34'20 9.1
2014-Dec-13 11:22N 51°57' E 003°23'12 9.9
2014-Dec-13 10:08N 51°45' E 003°16'7 9.9
2014-Dec-13 09:25N 51°39' E 003°20'1011.6
2014-Dec-13 08:33N 51°30' E 003°28'1111.2
2014-Dec-13 07:33N 51°24' E 003°43'6 6.2
2014-Dec-13 06:34N 51°19' E 003°49'1 0.9
2014-Dec-13 05:28N 51°18' E 003°50'0 0.0
2014-Dec-13 04:25N 51°18' E 003°50'0 0.0
2014-Dec-13 03:30N 51°18' E 003°50'0 0.0
2014-Dec-13 02:33N 51°18' E 003°50'0 0.0
2014-Dec-13 01:33N 51°18' E 003°50'0 0.0
2014-Dec-13 00:33N 51°18' E 003°50'0 0.0
2014-Dec-12 23:33N 51°18' E 003°50'0 0.0
2014-Dec-12 22:33N 51°18' E 003°50'  

Dump ship's entire track history